Flight Track Log - Related Links

Times and Time Zones

All times are in EDT time to prevent confusion due to time zone crossing. See the AWE1940 flight status page for this flight to view local times or setup timezone preferences in your user account.

Time Position Orientation Groundspeed Altitude Reporting Facility
EDT Latitude Longitude Course Direction KTS MPH feet Rate Location/Type
Tue 11:28:24 PM 35.1933 -80.9533 39° Northeast 176 203 1,400  Level Atlanta Center
Tue 11:29:07 PM 35.1558 -80.9522 179° South 196 226 2,500 2,087 Climbing Atlanta Center
Tue 11:29:56 PM 35.1278 -80.9989 234° Southwest 223 257 4,600 2,422 Climbing Atlanta Center
Tue 11:30:56 PM 35.1686 -81.0533 313° West 242 278 6,900 2,100 Climbing Atlanta Center
Tue 11:31:00 PM 35.2580 -81.2167 North  Level FlightAware Approximate
Tue 11:31:56 PM 35.2297 -81.0689 348° North 265 305 8,800  Level Atlanta Center
Tue 11:32:00 PM 35.3257 -81.1002 52° Northeast  Level FlightAware Approximate
Tue 11:32:56 PM 35.3119 -81.0278 22° Northeast 271 312 11,100  Level Atlanta Center
Tue 11:33:00 PM 35.4006 -80.9828 39° Northeast  Level FlightAware Approximate
Tue 11:33:56 PM 35.4047 -80.9836 21° North 325 374 14,000  Level Atlanta Center
Tue 11:34:56 PM 35.5017 -80.9367 22° Northeast 361 415 16,900 2,650 Climbing Atlanta Center
Tue 11:35:56 PM 35.6047 -80.8894 20° North 381 438 19,300 2,400 Climbing Atlanta Center
Tue 11:36:56 PM 35.7119 -80.8342 23° Northeast 399 459 21,700 2,200 Climbing Atlanta Center
Tue 11:37:56 PM 35.8283 -80.8244 North 410 472 23,700 2,050 Climbing Atlanta Center
Tue 11:38:56 PM 35.9481 -80.8506 350° North 410 472 25,800 1,950 Climbing Atlanta Center
Tue 11:39:56 PM 36.0708 -80.8431 North 429 494 27,600 1,600 Climbing Atlanta Center
Tue 11:40:56 PM 36.1975 -80.8225 North 447 514 29,000 1,650 Climbing Atlanta Center
Tue 11:41:56 PM 36.3306 -80.8069 North 467 537 30,900 1,750 Climbing Atlanta Center
Tue 11:42:56 PM 36.4594 -80.7914 North 467 537 32,500 1,800 Climbing Atlanta Center
Tue 11:43:56 PM 36.5883 -80.7758 North 461 531 34,500 1,250 Climbing Atlanta Center
Tue 11:44:56 PM 36.7256 -80.7600 North 461 531 35,000 250 Climbing Atlanta Center
Tue 11:45:56 PM 36.8461 -80.7472 North 448 516 35,000  Level Atlanta Center
Tue 11:46:56 PM 36.9606 -80.7319 North 448 516 35,000  Level Atlanta Center
Tue 11:48:35 PM 37.1697 -80.6928 North 467 537 35,000  Level Washington Center
Tue 11:49:37 PM 37.3053 -80.6444 16° North 462 532 35,000  Level Washington Center
Tue 11:50:35 PM 37.4322 -80.6031 15° North 462 532 35,000  Level Washington Center
Tue 11:51:35 PM 37.5592 -80.5617 14° North 462 532 35,000  Level Washington Center
Tue 11:52:35 PM 37.6839 -80.5200 15° North 462 532 35,000  Level Washington Center
Tue 11:53:35 PM 37.7983 -80.4803 15° North 462 532 35,000  Level Washington Center
Tue 11:54:36 PM 37.9253 -80.4383 15° North 467 537 35,000  Level Washington Center
Tue 11:55:35 PM 38.0500 -80.3939 16° North 461 531 35,000  Level Washington Center
Tue 11:56:35 PM 38.1747 -80.3517 15° North 461 531 35,000  Level Washington Center
Tue 11:57:35 PM 38.2994 -80.3092 15° North 461 531 35,000  Level Washington Center
Tue 11:59:23 PM 38.5389 -80.2169 17° North 471 542 35,000  Level Cleveland Center
Wed 12:00:23 AM 38.6658 -80.1764 14° North 471 542 35,000  Level Cleveland Center
Wed 12:01:23 AM 38.7906 -80.1303 16° North 471 542 35,000  Level Cleveland Center
Wed 12:02:23 AM 38.9156 -80.0922 13° North 466 536 35,000  Level Cleveland Center
Wed 12:03:23 AM 39.0386 -80.0886 North 454 522 35,000  Level Cleveland Center
Wed 12:04:23 AM 39.1594 -80.0986 356° North 440 506 35,000  Level Cleveland Center
Wed 12:05:23 AM 39.2844 -80.1058 357° North 440 506 35,000  Level Cleveland Center
Wed 12:06:23 AM 39.4056 -80.1131 357° North 440 506 35,000  Level Cleveland Center
Wed 12:07:23 AM 39.5303 -80.0906 North 446 513 35,000  Level Cleveland Center
Wed 12:08:23 AM 39.6278 -79.9550 47° Northeast 449 517 35,000  Level Cleveland Center
Wed 12:09:23 AM 39.7394 -79.8433 38° Northeast 476 548 35,000  Level Cleveland Center
Wed 12:10:23 AM 39.8492 -79.7314 38° Northeast 492 566 35,000  Level Cleveland Center
Wed 12:11:23 AM 39.9397 -79.5839 51° Northeast 497 572 35,000  Level Cleveland Center
Wed 12:12:23 AM 40.0303 -79.4389 51° Northeast 508 585 35,000  Level Cleveland Center
Wed 12:13:23 AM 40.1100 -79.3044 52° Northeast 513 590 35,000  Level Cleveland Center
Wed 12:14:23 AM 40.2022 -79.1614 50° Northeast 513 590 35,000  Level Cleveland Center
Wed 12:15:23 AM 40.2939 -79.0125 51° Northeast 518 596 35,000  Level Cleveland Center
Wed 12:16:23 AM 40.3836 -78.8686 51° Northeast 518 596 35,000  Level Cleveland Center
Wed 12:17:23 AM 40.4750 -78.7189 51° Northeast 518 596 35,000  Level Cleveland Center
Wed 12:19:48 AM 40.6908 -78.3614 51° Northeast 526 605 35,000  Level New York Center
Wed 12:20:48 AM 40.7908 -78.1997 51° Northeast 526 605 35,000  Level New York Center
Wed 12:21:51 AM 40.8792 -78.0528 51° Northeast 526 605 35,000 -1,100 Level New York Center
Wed 12:22:48 AM 40.9594 -77.8992 55° Northeast 514 592 32,800 -2,542 Descending New York Center
Wed 12:23:49 AM 41.0311 -77.7444 58° Northeast 502 578 30,000 -2,727 Descending New York Center
Wed 12:24:49 AM 41.1044 -77.5922 57° Northeast 497 572 27,300 -1,884 Descending New York Center
Wed 12:25:50 AM 41.1781 -77.4342 58° Northeast 497 572 26,200 -1,160 Descending New York Center
Wed 12:26:48 AM 41.2472 -77.2781 59° Northeast 492 566 25,000 -756 Descending New York Center
Wed 12:27:49 AM 41.3111 -77.1378 59° Northeast 463 533 24,700 -992 Descending New York Center
Wed 12:28:49 AM 41.3747 -77.0000 58° Northeast 445 512 23,000 -850 Descending New York Center
Wed 12:29:49 AM 41.4381 -76.8619 59° Northeast 434 499 23,000  Level New York Center
Wed 12:30:48 AM 41.4994 -76.7206 60° Northeast 429 494 23,000  Level New York Center
Wed 12:31:49 AM 41.5647 -76.5794 58° Northeast 429 494 23,000  Level New York Center
Wed 12:32:48 AM 41.6161 -76.4617 60° Northeast 435 501 23,000  Level New York Center
Wed 12:33:49 AM 41.6886 -76.2986 59° Northeast 447 514 23,000  Level New York Center
Wed 12:34:48 AM 41.7558 -76.1483 59° Northeast 458 527 23,000  Level New York Center
Wed 12:37:07 AM 41.9156 -75.7828 59° Northeast 469 540 23,000  Level Boston Center
Wed 12:38:07 AM 41.9803 -75.6325 60° Northeast 469 540 23,000  Level Boston Center
Wed 12:39:07 AM 42.0469 -75.4792 60° Northeast 469 540 23,000  Level Boston Center
Wed 12:40:07 AM 42.1114 -75.3283 60° Northeast 469 540 23,000  Level Boston Center
Wed 12:41:07 AM 42.1733 -75.1800 61° Northeast 464 534 23,000 -500 Level Boston Center
Wed 12:42:07 AM 42.2286 -75.0533 59° Northeast 450 518 22,000 -1,600 Descending Boston Center
Wed 12:43:07 AM 42.2881 -74.9128 60° Northeast 437 503 19,800 -2,350 Descending Boston Center
Wed 12:44:07 AM 42.3472 -74.7744 60° Northeast 422 486 17,300 -2,600 Descending Boston Center
Wed 12:45:07 AM 42.4042 -74.6361 61° Northeast 399 459 14,600 -2,450 Descending Boston Center
Wed 12:46:07 AM 42.4522 -74.5253 60° Northeast 383 441 12,400 -1,750 Descending Boston Center
Wed 12:47:07 AM 42.5044 -74.3947 61° Northeast 361 415 11,100 -700 Descending Boston Center
Wed 12:48:07 AM 42.5481 -74.2889 61° Northeast 356 410 11,000 -491 Descending Boston Center
Wed 12:48:57 AM 42.5786 -74.1939 66° East 308 354 10,200 -1,418 Descending Boston Center
Wed 12:49:57 AM 42.5700 -74.0808 96° East 293 337 8,400 -1,835 Descending Boston Center
Wed 12:50:58 AM 42.5589 -73.9819 99° East 256 295 6,500 -1,869 Descending Boston Center
Wed 12:51:59 AM 42.5494 -73.8886 98° East 216 249 4,600 -1,686 Descending Boston Center
Wed 12:52:59 AM 42.5692 -73.8214 68° East 188 216 3,100 -1,041 Descending Boston Center
Wed 12:54:00 AM 42.6153 -73.8028 17° North 170 196 2,500 -645 Descending Boston Center
Wed 12:55:00 AM 42.6569 -73.8008 North 145 167 1,800 -645 Descending Boston Center
Wed 12:56:01 AM 42.6881 -73.8044 355° North 114 131 1,200 -590 Descending Boston Center
Wed 12:57:02 AM 42.7236 -73.8081 356° North 116 133 600 -590 Descending Boston Center

Login

Don't have an account? Register now (free) for customized features, flight alerts, and more!